createdAt,value
2018-09-24T00:01:57.744Z,99.90
2018-09-24T00:04:38.339Z,99.90
2018-09-24T00:07:19.739Z,99.90
2018-09-24T00:10:00.939Z,99.90
2018-09-24T00:12:41.752Z,99.90
2018-09-24T00:15:22.420Z,99.90
2018-09-24T00:18:02.983Z,99.90
2018-09-24T00:20:44.568Z,99.90
2018-09-24T00:23:25.946Z,99.90
2018-09-24T00:26:07.499Z,99.90
2018-09-24T00:28:48.968Z,99.90
2018-09-24T00:31:30.352Z,99.90
2018-09-24T00:34:10.876Z,99.90
2018-09-24T00:36:51.987Z,99.90
2018-09-24T00:39:32.968Z,99.90
2018-09-24T00:42:13.480Z,99.90
2018-09-24T00:44:53.984Z,99.90
2018-09-24T00:47:35.412Z,99.90
2018-09-24T00:50:16.805Z,99.90
2018-09-24T00:52:58.295Z,99.90
2018-09-24T00:55:39.787Z,99.90
2018-09-24T00:58:20.392Z,99.90
2018-09-24T01:01:00.900Z,99.90
2018-09-24T01:03:42.949Z,99.90
2018-09-24T01:06:24.455Z,99.90
2018-09-24T01:09:05.362Z,99.90
2018-09-24T01:11:45.900Z,99.90
2018-09-24T01:14:26.499Z,99.90
2018-09-24T01:17:07.019Z,99.90
2018-09-24T01:19:48.462Z,99.90
2018-09-24T01:22:29.044Z,99.90
2018-09-24T01:25:10.392Z,99.90
2018-09-24T01:27:51.815Z,99.90
2018-09-24T01:30:33.279Z,99.90
2018-09-24T01:33:13.883Z,99.90
2018-09-24T01:35:55.335Z,99.90
2018-09-24T01:38:35.867Z,99.90
2018-09-24T01:41:16.419Z,99.90
2018-09-24T01:43:57.828Z,99.90
2018-09-24T01:46:39.378Z,99.90
2018-09-24T01:49:19.836Z,99.90
2018-09-24T01:52:00.606Z,99.90
2018-09-24T01:54:42.062Z,99.90
2018-09-24T01:57:23.583Z,99.90
2018-09-24T02:00:04.951Z,99.90
2018-09-24T02:02:45.580Z,99.90
2018-09-24T02:05:26.184Z,99.90
2018-09-24T02:08:07.479Z,99.90
2018-09-24T02:10:48.100Z,99.90
2018-09-24T02:13:29.391Z,99.90
2018-09-24T02:16:09.966Z,99.90
2018-09-24T02:18:51.399Z,99.90
2018-09-24T02:21:31.829Z,99.90
2018-09-24T02:24:12.463Z,99.90
2018-09-24T02:26:53.816Z,99.90
2018-09-24T02:29:35.355Z,99.90
2018-09-24T02:32:16.625Z,99.90
2018-09-24T02:34:58.550Z,99.90
2018-09-24T02:37:39.700Z,99.90
2018-09-24T02:40:23.095Z,99.90
2018-09-24T02:43:03.692Z,99.90
2018-09-24T02:45:44.240Z,99.90
2018-09-24T02:48:25.612Z,99.90
2018-09-24T02:51:06.180Z,99.90
2018-09-24T02:53:47.627Z,99.90
2018-09-24T02:56:29.541Z,99.90
2018-09-24T02:59:10.455Z,99.90
2018-09-24T03:01:51.944Z,99.90
2018-09-24T03:04:33.377Z,99.90
2018-09-24T03:07:14.815Z,99.90
2018-09-24T03:09:56.200Z,99.90
2018-09-24T03:12:36.740Z,99.90
2018-09-24T03:15:17.284Z,99.90
2018-09-24T03:17:57.984Z,99.90
2018-09-24T03:20:44.435Z,99.90
2018-09-24T03:23:25.910Z,99.90
2018-09-24T03:26:06.483Z,99.90
2018-09-24T03:28:47.887Z,99.90
2018-09-24T03:31:31.008Z,99.90
2018-09-24T03:34:12.372Z,99.90
2018-09-24T03:36:53.497Z,99.90
2018-09-24T03:39:34.892Z,99.90
2018-09-24T03:42:15.412Z,99.90
2018-09-24T03:44:55.984Z,99.90
2018-09-24T03:47:37.487Z,99.90
2018-09-24T03:50:17.980Z,99.90
2018-09-24T03:52:59.432Z,99.90
2018-09-24T03:55:40.786Z,99.90
2018-09-24T03:58:21.412Z,99.90
2018-09-24T04:01:02.884Z,99.90
2018-09-24T04:03:44.375Z,99.90
2018-09-24T04:06:29.984Z,99.90
2018-09-24T04:09:16.143Z,99.90
2018-09-24T04:12:02.540Z,99.90
2018-09-24T04:14:48.731Z,99.90
2018-09-24T04:17:35.183Z,99.90
2018-09-24T04:20:21.687Z,99.90
2018-09-24T04:23:08.096Z,99.90
2018-09-24T04:25:54.626Z,99.90
2018-09-24T04:28:40.709Z,99.90
2018-09-24T04:31:28.975Z,99.90
2018-09-24T04:34:15.580Z,99.90
2018-09-24T04:37:02.046Z,99.90
2018-09-24T04:39:48.356Z,99.90
2018-09-24T04:42:34.644Z,99.90
2018-09-24T04:45:21.325Z,99.90
2018-09-24T04:48:07.528Z,99.90
2018-09-24T04:50:53.712Z,99.90
2018-09-24T04:53:39.156Z,99.90
2018-09-24T04:56:25.596Z,99.90
2018-09-24T04:59:12.003Z,99.90
2018-09-24T05:01:58.435Z,99.90
2018-09-24T05:04:44.743Z,99.90
2018-09-24T05:07:30.160Z,99.90
2018-09-24T05:10:15.721Z,99.90
2018-09-24T05:13:02.116Z,99.90
2018-09-24T05:15:48.515Z,99.90
2018-09-24T05:18:34.809Z,99.90
2018-09-24T05:21:21.348Z,99.90
2018-09-24T05:24:07.785Z,99.90
2018-09-24T05:26:54.133Z,99.90
2018-09-24T05:29:40.541Z,99.90
2018-09-24T05:32:26.838Z,99.90
2018-09-24T05:35:13.452Z,99.90
2018-09-24T05:37:59.639Z,99.90
2018-09-24T05:40:46.144Z,99.90
2018-09-24T05:43:32.291Z,99.90
2018-09-24T05:46:18.756Z,99.90
2018-09-24T05:49:05.303Z,99.90
2018-09-24T05:51:51.576Z,99.90
2018-09-24T05:54:39.965Z,99.90
2018-09-24T05:57:25.661Z,99.90
2018-09-24T06:00:12.296Z,99.90
2018-09-24T06:02:58.339Z,99.90
2018-09-24T06:05:44.960Z,99.90
2018-09-24T06:08:31.243Z,99.90
2018-09-24T06:11:18.664Z,99.90
2018-09-24T06:14:04.951Z,99.90
2018-09-24T06:16:51.640Z,99.90
2018-09-24T06:19:37.908Z,99.90
2018-09-24T06:22:24.415Z,99.90
2018-09-24T06:25:11.624Z,99.90
2018-09-24T06:27:58.281Z,99.90
2018-09-24T06:30:44.428Z,99.90
2018-09-24T06:33:30.968Z,99.50
2018-09-24T06:36:17.403Z,98.70
2018-09-24T06:39:03.724Z,97.40
2018-09-24T06:41:49.999Z,96.60
2018-09-24T06:44:36.737Z,96.60
2018-09-24T06:47:22.850Z,96.60
2018-09-24T06:50:09.386Z,96.40
2018-09-24T06:52:55.655Z,96.40
2018-09-24T06:55:42.051Z,96.30
2018-09-24T06:58:28.532Z,96.20
2018-09-24T07:01:15.872Z,96.30
2018-09-24T07:04:02.453Z,96.10
2018-09-24T07:06:48.667Z,96.00
2018-09-24T07:09:35.225Z,95.60
2018-09-24T07:12:21.804Z,95.50
2018-09-24T07:15:07.940Z,95.30
2018-09-24T07:17:54.765Z,95.50
2018-09-24T07:20:40.760Z,95.20
2018-09-24T07:23:27.192Z,95.30
2018-09-24T07:26:13.376Z,95.10
2018-09-24T07:28:59.879Z,95.00
2018-09-24T07:31:46.306Z,93.90
2018-09-24T07:34:32.537Z,94.20
2018-09-24T07:37:19.021Z,94.70
2018-09-24T07:40:05.300Z,96.40
2018-09-24T07:42:51.848Z,97.10
2018-09-24T07:45:38.335Z,97.10
2018-09-24T07:48:24.783Z,97.20
2018-09-24T07:51:11.203Z,97.10
2018-09-24T07:53:57.644Z,96.80
2018-09-24T07:56:43.840Z,96.10
2018-09-24T07:59:30.673Z,95.90
2018-09-24T08:02:16.558Z,95.40
2018-09-24T08:05:03.155Z,94.00
2018-09-24T08:07:49.952Z,93.10
2018-09-24T08:10:35.717Z,92.60
2018-09-24T08:13:22.103Z,91.90
2018-09-24T08:16:08.512Z,91.50
2018-09-24T08:18:54.741Z,91.40
2018-09-24T08:21:41.072Z,91.40
2018-09-24T08:24:27.619Z,91.40
2018-09-24T08:27:13.931Z,90.90
2018-09-24T08:30:00.823Z,91.50
2018-09-24T08:32:46.927Z,91.00
2018-09-24T08:35:33.992Z,91.10
2018-09-24T08:38:20.510Z,90.50
2018-09-24T08:41:06.805Z,90.50
2018-09-24T08:43:53.267Z,90.80
2018-09-24T08:46:39.464Z,90.70
2018-09-24T08:49:26.103Z,90.20
2018-09-24T08:52:13.395Z,90.50
2018-09-24T08:54:59.932Z,90.40
2018-09-24T08:57:46.392Z,90.20
2018-09-24T09:00:32.863Z,90.70
2018-09-24T09:03:19.733Z,90.60
2018-09-24T09:06:05.496Z,91.20
2018-09-24T09:08:51.708Z,91.40
2018-09-24T09:11:38.195Z,92.00
2018-09-24T09:14:24.436Z,92.30
2018-09-24T09:17:11.063Z,92.50
2018-09-24T09:19:58.260Z,92.30
2018-09-24T09:22:44.639Z,92.10
2018-09-24T09:25:31.170Z,92.10
2018-09-24T09:28:17.660Z,92.30
2018-09-24T09:31:05.815Z,92.60
2018-09-24T09:33:52.255Z,92.90
2018-09-24T09:36:38.741Z,93.00
2018-09-24T09:39:25.056Z,92.80
2018-09-24T09:42:11.475Z,92.40
2018-09-24T09:44:57.796Z,92.10
2018-09-24T09:47:45.219Z,91.70
2018-09-24T09:50:31.623Z,91.20
2018-09-24T09:53:17.919Z,91.00
2018-09-24T09:56:04.468Z,90.90
2018-09-24T09:58:51.519Z,90.80
2018-09-24T10:01:38.137Z,90.70
2018-09-24T10:04:24.336Z,90.40
2018-09-24T10:07:10.633Z,90.60
2018-09-24T10:09:57.316Z,90.70
2018-09-24T10:12:43.455Z,90.90
2018-09-24T10:15:30.050Z,90.50
2018-09-24T10:18:16.497Z,89.90
2018-09-24T10:21:03.066Z,89.80
2018-09-24T10:23:49.351Z,89.30
2018-09-24T10:26:35.793Z,88.50
2018-09-24T10:29:22.276Z,88.10
2018-09-24T10:32:08.676Z,88.90
2018-09-24T10:34:55.137Z,89.60
2018-09-24T10:37:41.607Z,89.40
2018-09-24T10:40:27.972Z,90.80
2018-09-24T10:43:14.375Z,91.20
2018-09-24T10:46:00.982Z,91.80
2018-09-24T10:48:47.282Z,92.40
2018-09-24T10:51:33.407Z,92.80
2018-09-24T10:54:19.824Z,92.80
2018-09-24T10:57:06.271Z,92.80
2018-09-24T10:59:52.603Z,93.50
2018-09-24T11:02:39.084Z,93.70
2018-09-24T11:05:25.322Z,94.00
2018-09-24T11:08:10.919Z,94.50
2018-09-24T11:10:57.611Z,94.60
2018-09-24T11:13:43.996Z,94.90
2018-09-24T11:16:31.169Z,95.30
2018-09-24T11:19:16.747Z,95.30
2018-09-24T11:22:03.148Z,95.30
2018-09-24T11:24:49.640Z,95.30
2018-09-24T11:27:35.966Z,95.20
2018-09-24T11:30:22.332Z,95.40
2018-09-24T11:33:08.651Z,95.50
2018-09-24T11:35:55.103Z,95.60
2018-09-24T11:38:41.380Z,95.50
2018-09-24T11:41:27.793Z,95.90
2018-09-24T11:44:14.069Z,95.90
2018-09-24T11:46:59.652Z,95.70
2018-09-24T11:49:46.056Z,95.80
2018-09-24T11:52:32.218Z,95.90
2018-09-24T11:55:18.647Z,96.10
2018-09-24T11:58:05.329Z,96.00
2018-09-24T12:00:51.547Z,95.80
2018-09-24T12:03:38.471Z,95.80
2018-09-24T12:06:24.044Z,95.20
2018-09-24T12:09:10.591Z,95.10
2018-09-24T12:11:57.421Z,94.60
2018-09-24T12:14:43.477Z,93.70
2018-09-24T12:17:29.712Z,93.70
2018-09-24T12:20:16.142Z,93.30
2018-09-24T12:23:02.361Z,93.10
2018-09-24T12:25:48.771Z,92.80
2018-09-24T12:28:35.065Z,92.60
2018-09-24T12:31:21.424Z,92.60
2018-09-24T12:34:07.760Z,92.30
2018-09-24T12:36:54.039Z,92.30
2018-09-24T12:39:40.319Z,92.90
2018-09-24T12:42:26.724Z,92.50
2018-09-24T12:45:13.106Z,93.00
2018-09-24T12:47:59.686Z,93.20
2018-09-24T12:50:53.039Z,93.10
2018-09-24T12:53:38.711Z,93.10
2018-09-24T12:56:25.257Z,92.80
2018-09-24T12:59:11.698Z,93.00
2018-09-24T13:01:57.892Z,93.80
2018-09-24T13:04:44.367Z,94.40
2018-09-24T13:07:30.672Z,94.50
2018-09-24T13:10:16.927Z,94.00
2018-09-24T13:13:03.328Z,94.10
2018-09-24T13:15:49.829Z,94.00
2018-09-24T13:18:36.331Z,93.50
2018-09-24T13:21:22.808Z,93.50
2018-09-24T13:24:09.011Z,94.00
2018-09-24T13:26:55.545Z,93.50
2018-09-24T13:29:41.866Z,93.70
2018-09-24T13:32:28.244Z,93.70
2018-09-24T13:35:15.381Z,93.60
2018-09-24T13:38:01.186Z,93.60
2018-09-24T13:40:47.717Z,93.60
2018-09-24T13:43:34.008Z,93.70
2018-09-24T13:46:20.456Z,93.50
2018-09-24T13:49:06.627Z,93.50
2018-09-24T13:51:53.337Z,93.00
2018-09-24T13:54:39.580Z,93.20
2018-09-24T13:57:25.903Z,92.80
2018-09-24T14:00:13.197Z,92.80
2018-09-24T14:02:58.880Z,93.20
2018-09-24T14:05:45.080Z,93.10
2018-09-24T14:08:31.596Z,92.80
2018-09-24T14:11:17.991Z,93.30
2018-09-24T14:14:04.293Z,93.30
2018-09-24T14:16:50.855Z,93.20
2018-09-24T14:19:37.071Z,93.50
2018-09-24T14:22:23.413Z,93.60
2018-09-24T14:25:09.867Z,93.60
2018-09-24T14:27:56.247Z,93.80
2018-09-24T14:30:42.587Z,93.90
2018-09-24T14:33:29.023Z,94.00
2018-09-24T14:36:15.507Z,94.10
2018-09-24T14:39:01.988Z,94.00
2018-09-24T14:41:48.371Z,94.00
2018-09-24T14:44:34.858Z,94.00
2018-09-24T14:47:21.172Z,94.00
2018-09-24T14:50:07.719Z,94.00
2018-09-24T14:52:53.985Z,94.30
2018-09-24T14:55:40.519Z,94.50
2018-09-24T14:58:26.803Z,94.60
2018-09-24T15:01:14.027Z,94.80
2018-09-24T15:03:59.804Z,95.10
2018-09-24T15:06:46.260Z,94.70
2018-09-24T15:09:32.467Z,94.70
2018-09-24T15:12:18.811Z,94.80
2018-09-24T15:15:05.235Z,94.70
2018-09-24T15:17:51.687Z,94.90
2018-09-24T15:20:38.248Z,95.00
2018-09-24T15:23:24.444Z,95.20
2018-09-24T15:26:10.903Z,95.30
2018-09-24T15:28:57.266Z,95.50
2018-09-24T15:31:43.740Z,95.70
2018-09-24T15:34:30.376Z,95.70
2018-09-24T15:37:16.751Z,95.90
2018-09-24T15:40:03.769Z,96.10
2018-09-24T15:42:49.484Z,95.80
2018-09-24T15:45:35.924Z,95.70
2018-09-24T15:48:22.415Z,95.50
2018-09-24T15:51:08.975Z,95.30
2018-09-24T15:53:55.225Z,95.20
2018-09-24T15:56:41.460Z,95.20
2018-09-24T15:59:27.883Z,95.30
2018-09-24T16:02:14.315Z,95.30
2018-09-24T16:05:00.547Z,95.30
2018-09-24T16:07:47.052Z,95.30
2018-09-24T16:10:33.412Z,95.10
2018-09-24T16:13:19.815Z,95.10
2018-09-24T16:16:06.328Z,95.20
2018-09-24T16:18:53.019Z,95.20
2018-09-24T16:21:39.209Z,95.20
2018-09-24T16:24:25.580Z,95.20
2018-09-24T16:27:11.928Z,95.20
2018-09-24T16:29:58.632Z,95.00
2018-09-24T16:32:44.608Z,95.00
2018-09-24T16:35:31.144Z,95.20
2018-09-24T16:38:17.459Z,95.20
2018-09-24T16:41:04.404Z,95.40
2018-09-24T16:43:50.163Z,95.40
2018-09-24T16:46:35.656Z,95.60
2018-09-24T16:49:22.167Z,95.70
2018-09-24T16:52:08.639Z,95.60
2018-09-24T16:54:54.890Z,95.40
2018-09-24T16:57:41.467Z,95.40
2018-09-24T17:00:27.726Z,95.60
2018-09-24T17:03:14.208Z,95.70
2018-09-24T17:06:00.339Z,95.60
2018-09-24T17:08:46.783Z,95.60
2018-09-24T17:11:33.092Z,95.80
2018-09-24T17:14:18.699Z,96.00
2018-09-24T17:17:05.565Z,96.00
2018-09-24T17:19:51.371Z,95.90
2018-09-24T17:22:37.855Z,96.00
2018-09-24T17:25:23.971Z,96.10
2018-09-24T17:28:10.353Z,96.00
2018-09-24T17:30:56.664Z,96.00
2018-09-24T17:33:43.828Z,95.90
2018-09-24T17:36:29.452Z,96.10
2018-09-24T17:39:15.876Z,96.20
2018-09-24T17:42:02.275Z,96.30
2018-09-24T17:44:48.628Z,96.20
2018-09-24T17:47:35.041Z,96.50
2018-09-24T17:50:21.516Z,96.60
2018-09-24T17:53:07.807Z,96.70
2018-09-24T17:55:54.308Z,96.80
2018-09-24T17:58:40.707Z,96.70
2018-09-24T18:01:27.100Z,96.70
2018-09-24T18:04:13.491Z,96.60
2018-09-24T18:06:59.900Z,96.60
2018-09-24T18:09:46.293Z,97.10
2018-09-24T18:12:32.819Z,97.00
2018-09-24T18:15:19.092Z,96.70
2018-09-24T18:18:05.599Z,96.70
2018-09-24T18:20:52.170Z,96.50
2018-09-24T18:23:38.667Z,96.70
2018-09-24T18:26:25.016Z,96.80
2018-09-24T18:29:11.647Z,96.70
2018-09-24T18:31:57.984Z,96.80
2018-09-24T18:34:44.320Z,96.90
2018-09-24T18:37:30.843Z,96.90
2018-09-24T18:40:17.240Z,97.00
2018-09-24T18:43:03.547Z,96.90
2018-09-24T18:45:49.922Z,97.00
2018-09-24T18:48:37.275Z,97.00
2018-09-24T18:51:23.683Z,96.70
2018-09-24T18:54:10.264Z,96.60
2018-09-24T18:56:56.527Z,96.70
2018-09-24T18:59:42.979Z,96.60
2018-09-24T19:02:29.499Z,96.50
2018-09-24T19:05:15.679Z,96.30
2018-09-24T19:08:02.723Z,96.40
2018-09-24T19:10:48.611Z,96.40
2018-09-24T19:13:35.787Z,96.70
2018-09-24T19:16:21.469Z,96.30
2018-09-24T19:19:07.807Z,96.20
2018-09-24T19:21:54.319Z,96.40
2018-09-24T19:24:40.572Z,96.40
2018-09-24T19:27:27.040Z,96.50
2018-09-24T19:30:14.352Z,96.60
2018-09-24T19:33:00.934Z,96.60
2018-09-24T19:35:47.259Z,96.40
2018-09-24T19:38:33.784Z,96.10
2018-09-24T19:41:20.912Z,96.10
2018-09-24T19:44:07.397Z,96.20
2018-09-24T19:46:53.759Z,96.20
2018-09-24T19:49:40.213Z,96.10
2018-09-24T19:52:26.520Z,96.20
2018-09-24T19:55:12.198Z,96.70
2018-09-24T19:57:58.512Z,96.40
2018-09-24T20:00:45.148Z,96.30
2018-09-24T20:03:31.420Z,96.20
2018-09-24T20:06:17.908Z,96.10
2018-09-24T20:09:04.163Z,96.30
2018-09-24T20:11:50.548Z,96.50
2018-09-24T20:14:36.648Z,96.50
2018-09-24T20:17:23.175Z,96.50
2018-09-24T20:20:09.455Z,96.60
2018-09-24T20:22:56.047Z,96.60
2018-09-24T20:25:42.343Z,96.40
2018-09-24T20:28:29.739Z,96.40
2018-09-24T20:31:16.079Z,97.00
2018-09-24T20:34:03.228Z,97.30
2018-09-24T20:36:48.787Z,97.90
2018-09-24T20:39:35.283Z,98.70
2018-09-24T20:42:21.548Z,99.10
2018-09-24T20:45:08.184Z,99.40
2018-09-24T20:47:54.433Z,99.90
2018-09-24T20:50:40.724Z,99.90
2018-09-24T20:53:27.277Z,99.90
2018-09-24T20:56:13.640Z,99.90
2018-09-24T20:58:59.967Z,99.90
2018-09-24T21:01:46.403Z,99.90
2018-09-24T21:04:32.796Z,99.90
2018-09-24T21:07:19.283Z,99.90
2018-09-24T21:10:05.604Z,99.90
2018-09-24T21:12:51.876Z,99.90
2018-09-24T21:15:38.431Z,99.90
2018-09-24T21:18:24.880Z,99.90
2018-09-24T21:21:11.168Z,99.90
2018-09-24T21:23:57.486Z,99.90
2018-09-24T21:26:44.170Z,99.90
2018-09-24T21:29:30.628Z,99.90
2018-09-24T21:32:16.979Z,99.90
2018-09-24T21:35:03.305Z,99.90
2018-09-24T21:37:49.663Z,99.90
2018-09-24T21:40:36.032Z,99.90
2018-09-24T21:43:22.357Z,99.90
2018-09-24T21:46:08.783Z,99.90
2018-09-24T21:48:55.224Z,99.70
2018-09-24T21:51:41.652Z,98.90
2018-09-24T21:54:27.857Z,98.60
2018-09-24T21:57:14.200Z,98.50
2018-09-24T22:00:00.505Z,98.40
2018-09-24T22:02:46.800Z,98.20
2018-09-24T22:05:33.136Z,98.10
2018-09-24T22:08:19.387Z,98.00
2018-09-24T22:11:05.987Z,97.60
2018-09-24T22:13:52.095Z,97.50
2018-09-24T22:16:38.670Z,97.10
2018-09-24T22:19:25.018Z,96.60
2018-09-24T22:22:11.583Z,96.10
2018-09-24T22:24:57.835Z,95.70
2018-09-24T22:27:44.251Z,95.80
2018-09-24T22:30:30.627Z,95.80
2018-09-24T22:33:17.083Z,95.40
2018-09-24T22:36:03.421Z,95.60
2018-09-24T22:38:49.651Z,95.30
2018-09-24T22:41:36.083Z,94.90
2018-09-24T22:44:22.537Z,95.30
2018-09-24T22:47:08.845Z,95.50
2018-09-24T22:49:55.396Z,94.90
2018-09-24T22:52:41.684Z,94.90
2018-09-24T22:55:27.979Z,95.10
2018-09-24T22:58:14.243Z,94.40
2018-09-24T23:01:00.820Z,94.60
2018-09-24T23:03:47.227Z,94.20
2018-09-24T23:06:33.384Z,94.40
2018-09-24T23:09:19.939Z,94.20
2018-09-24T23:12:06.189Z,94.20
2018-09-24T23:14:52.707Z,94.50
2018-09-24T23:17:39.079Z,94.90
2018-09-24T23:20:25.371Z,94.90
2018-09-24T23:23:11.688Z,95.10
2018-09-24T23:25:58.303Z,95.20
2018-09-24T23:28:44.395Z,95.00
2018-09-24T23:31:30.815Z,94.80
2018-09-24T23:34:17.104Z,95.00
2018-09-24T23:37:03.880Z,95.00
2018-09-24T23:39:49.995Z,94.60
2018-09-24T23:42:36.299Z,94.40
2018-09-24T23:45:22.812Z,94.30
2018-09-24T23:48:09.130Z,94.20
2018-09-24T23:50:55.565Z,93.90
2018-09-24T23:53:42.064Z,93.90
2018-09-24T23:56:28.308Z,93.70
2018-09-24T23:59:14.939Z,93.70
